Portada
Imágenes satélite Pronóstico 15 díasClimaPredicción Marítima Ciclones Rayo AeropuertosFAQ Noticias Acerca
El tiempo : Europa África América del Norte América del Sur Asia Australia-Oceanía Otros
Idiomas Contacto

Ezeiza, Argentina

latitud: 34-49S, longitud: 058-32W, altitud: 20 m


METAR: SAEZ 302100Z 16009KT CAVOK 19/13 Q1017
TAF: SAEZ 301700Z 3018/0118 07010KT CAVOK TX21/3019Z TN13/0111Z TEMPO 3019/3022 9000 -DZ FEW035 FEW050

Hora: 18:54 (21:54 UTC)

Observación

El informe se hizo hace 54 minutos, a las 21:00 UTC  
Viento 09 kt del sur-sureste
Temperatura 19°C
Humedad 68%
Presión 1017 hPa
Visibilidad 10 km o más
sin nubes por debajo de 1500 m y sin presencia de cumulonimbus.

Cambiar las unidades

Pronóstico

El informe se hizo hace 04 horas y 54 minutos, a las 17:00 UTC  
Pronóstico válido del 30 a las 18 UTC al 01 a las 18 UTC
Viento 10 kt del este-noreste
Visibilidad 10 km o más
sin nubes por debajo de 1500 m y sin presencia de cumulonimbus.
Temporalmente
del 30 a las 19 UTC al 30 a las 22 UTC
Visibilidad 9000 m
Escasas nubes a una altura de 3500 ft
Escasas nubes a una altura de 5000 ft
leve llovizna
La información que se ofrece en estas páginas está sujeta a una cláusula de exención de responsabilidad
El tiempo : Europa África América del Norte América del Sur Asia Australia-Oceanía Otros
Imágenes satélite Pronóstico 15 díasClimaPredicción Marítima Ciclones Rayo AeropuertosFAQ Idiomas Contacto Noticias Acerca